Time;durP1;ratioP1;P1;durP2;ratioP2;P2;SDS_P1;SDS_P2;PMS_P1;PMS_P2;Temp;Humidity;BMP_temperature;BMP_pressure;BME280_temperature;BME280_humidity;BME280_pressure;Samples;Min_cycle;Max_cycle;Signal;HPM_P1;HPM_P2
2023/04/15 00:00:01;;;;;;;8.23;5.23;;;;;;;11.29;54.01;96923.56;8319541;28;20229;-79
2023/04/15 00:04:05;;;;;;;13.60;7.33;;;;;;;11.34;53.70;96917.16;8319168;28;20238;-79
2023/04/15 00:08:08;;;;;;;12.60;7.47;;;;;;;11.38;53.60;96915.19;8319248;28;20230;-79
2023/04/15 00:12:11;;;;;;;14.00;8.00;;;;;;;11.39;53.38;96906.50;8319175;28;20432;-79
2023/04/15 00:16:14;;;;;;;14.47;8.03;;;;;;;11.37;53.74;96910.97;8319178;28;20245;-79
2023/04/15 00:20:18;;;;;;;10.17;6.53;;;;;;;11.35;53.69;96908.47;8318945;28;20227;-79
2023/04/15 00:24:22;;;;;;;8.77;5.90;;;;;;;11.35;54.10;96903.28;8318758;28;20238;-80
2023/04/15 00:28:25;;;;;;;5.57;4.83;;;;;;;11.36;53.99;96896.34;8318725;28;20238;-79
2023/04/15 00:32:28;;;;;;;5.67;4.50;;;;;;;11.38;54.04;96898.84;8318232;28;20242;-79
2023/04/15 00:36:33;;;;;;;6.63;4.90;;;;;;;11.37;53.79;96892.00;8318410;28;20306;-79
2023/04/15 00:40:36;;;;;;;6.43;4.73;;;;;;;11.42;54.04;96890.75;8318292;28;20233;-79
2023/04/15 00:44:39;;;;;;;5.20;4.30;;;;;;;11.38;53.88;96888.47;8318141;28;20284;-79
2023/04/15 00:48:42;;;;;;;5.00;4.10;;;;;;;11.00;53.54;96826.97;8317996;28;20298;-79
2023/04/15 00:52:47;;;;;;;4.60;3.87;;;;;;;11.39;53.79;96882.34;8317611;28;20234;-79
2023/04/15 00:56:50;;;;;;;4.50;4.10;;;;;;;11.40;53.91;96889.19;8317517;28;20277;-79
2023/04/15 01:00:53;;;;;;;4.60;4.20;;;;;;;11.37;53.92;96882.44;8317500;28;20298;-79
2023/04/15 01:04:56;;;;;;;4.00;3.70;;;;;;;11.35;53.78;96885.13;8317479;28;20487;-79
2023/04/15 01:09:01;;;;;;;4.10;2.90;;;;;;;11.33;53.92;96887.00;8316317;28;20518;-79
2023/04/15 01:13:05;;;;;;;3.63;3.20;;;;;;;11.26;54.04;96884.91;8317178;28;20410;-79
2023/04/15 01:17:08;;;;;;;3.60;3.30;;;;;;;11.32;54.33;96876.72;8317219;28;20230;-79
2023/04/15 01:21:12;;;;;;;3.43;3.00;;;;;;;11.34;54.13;96874.88;8316510;28;20230;-79
2023/04/15 01:25:19;;;;;;;3.70;3.40;;;;;;;11.30;53.90;96865.63;8317046;28;20232;-79
2023/04/15 01:29:23;;;;;;;3.40;2.80;;;;;;;11.38;54.04;96865.94;8316734;28;20226;-79
2023/04/15 01:33:26;;;;;;;3.10;2.80;;;;;;;11.44;53.81;96862.97;8317013;28;20226;-79
2023/04/15 01:37:29;;;;;;;4.00;3.40;;;;;;;11.30;54.01;96856.09;8316005;28;20230;-79
2023/04/15 01:41:32;;;;;;;4.37;3.13;;;;;;;11.29;54.13;96859.63;8315919;28;20238;-79
2023/04/15 01:45:36;;;;;;;3.40;3.10;;;;;;;11.33;53.72;96866.25;8315991;28;20298;-80
2023/04/15 01:49:39;;;;;;;2.77;2.57;;;;;;;11.20;54.11;96825.69;8316180;28;20535;-79
2023/04/15 01:53:42;;;;;;;3.50;2.80;;;;;;;11.33;54.34;96855.91;8315776;28;20426;-80
2023/04/15 01:57:45;;;;;;;3.70;3.40;;;;;;;11.36;54.19;96852.25;8315956;28;20227;-79
2023/04/15 02:01:51;;;;;;;3.80;3.50;;;;;;;11.38;53.95;96847.81;8315527;28;20242;-79
2023/04/15 02:05:53;;;;;;;5.10;3.10;;;;;;;11.37;54.11;96850.53;8315620;28;20229;-79
2023/04/15 02:09:56;;;;;;;3.93;3.33;;;;;;;11.39;54.15;96849.47;8315525;28;20222;-79
2023/04/15 02:13:59;;;;;;;4.67;3.43;;;;;;;11.40;54.15;96843.34;8315439;28;20276;-79
2023/04/15 02:18:04;;;;;;;3.50;3.20;;;;;;;11.42;53.81;96835.47;8315100;28;20222;-80
2023/04/15 02:22:08;;;;;;;3.53;3.23;;;;;;;11.21;54.50;96822.16;8314992;28;20230;-80
2023/04/15 02:26:11;;;;;;;3.17;2.97;;;;;;;11.38;53.91;96837.44;8315070;28;20396;-79
2023/04/15 02:30:14;;;;;;;3.10;2.63;;;;;;;10.94;54.05;96769.44;8314968;28;20298;-79
2023/04/15 02:34:18;;;;;;;3.53;3.23;;;;;;;11.14;54.38;96840.72;8314903;28;20230;-79
2023/04/15 02:38:21;;;;;;;2.67;2.47;;;;;;;11.26;54.67;96839.06;8314727;28;20226;-79
2023/04/15 02:42:26;;;;;;;3.23;2.93;;;;;;;11.33;54.08;96842.94;8314395;28;20544;-79
2023/04/15 02:46:29;;;;;;;3.80;2.83;;;;;;;11.39;54.10;96838.28;8314049;28;20226;-79
2023/04/15 02:50:34;;;;;;;2.97;2.70;;;;;;;11.28;54.15;96850.16;8314323;28;20230;-79
2023/04/15 02:54:36;;;;;;;3.13;2.83;;;;;;;11.33;53.92;96845.53;8314457;28;20230;-79
2023/04/15 02:58:40;;;;;;;4.73;3.30;;;;;;;11.35;53.93;96845.44;8297097;28;20227;-78
2023/04/15 03:02:42;;;;;;;3.33;3.03;;;;;;;11.43;54.01;96850.13;8296463;28;20538;-80
2023/04/15 03:06:47;;;;;;;3.53;3.23;;;;;;;11.30;54.37;96848.31;8314065;28;20513;-80
2023/04/15 03:10:52;;;;;;;3.53;3.23;;;;;;;11.31;54.38;96842.22;8314179;28;20226;-79
2023/04/15 03:14:55;;;;;;;3.63;3.33;;;;;;;11.34;54.49;96854.13;8314032;28;20228;-79
2023/04/15 03:18:58;;;;;;;3.77;3.33;;;;;;;11.27;54.52;96845.94;8313629;28;20241;-79
2023/04/15 03:23:03;;;;;;;3.60;3.30;;;;;;;11.19;55.04;96852.53;8313822;28;20392;-79
2023/04/15 03:27:06;;;;;;;3.77;3.47;;;;;;;11.21;54.66;96848.06;8313627;28;20227;-79
2023/04/15 03:31:10;;;;;;;4.10;3.70;;;;;;;11.16;55.01;96838.03;8315803;28;20229;-79
2023/04/15 03:35:12;;;;;;;4.03;3.73;;;;;;;11.23;54.94;96843.63;8320370;28;20411;-79
2023/04/15 03:39:17;;;;;;;3.57;3.37;;;;;;;11.34;54.21;96839.41;8320185;28;20286;-79
2023/04/15 03:43:20;;;;;;;4.67;3.90;;;;;;;11.27;54.62;96837.31;8319871;28;20233;-79
2023/04/15 03:47:23;;;;;;;4.50;4.10;;;;;;;11.22;54.67;96834.22;8320023;28;20339;-79
2023/04/15 03:51:28;;;;;;;4.70;4.20;;;;;;;10.88;54.76;96781.97;8319197;28;20230;-79
2023/04/15 03:55:33;;;;;;;4.03;3.73;;;;;;;11.29;54.44;96836.31;8319464;28;20240;-79
2023/04/15 03:59:36;;;;;;;5.00;4.40;;;;;;;11.17;54.53;96841.44;8319174;28;20483;-79
2023/04/15 04:03:39;;;;;;;4.87;4.43;;;;;;;11.15;54.77;96834.56;8318731;28;20526;-79
2023/04/15 04:07:42;;;;;;;5.90;4.63;;;;;;;11.11;54.84;96835.72;8319260;28;20226;-79
2023/04/15 04:11:47;;;;;;;4.90;4.40;;;;;;;11.04;54.96;96843.97;8319221;28;20237;-79
2023/04/15 04:15:50;;;;;;;4.50;4.10;;;;;;;11.23;54.50;96844.47;8319093;28;20526;-79
2023/04/15 04:19:53;;;;;;;5.10;4.07;;;;;;;11.08;55.33;96846.28;8318662;28;20232;-80
2023/04/15 04:23:57;;;;;;;5.07;4.50;;;;;;;11.13;54.87;96854.56;8318395;28;20232;-80
2023/04/15 04:28:02;;;;;;;4.30;3.90;;;;;;;10.11;54.63;96686.69;8318825;28;20229;-79
2023/04/15 04:32:05;;;;;;;4.40;4.00;;;;;;;11.15;54.71;96855.31;8318314;28;20235;-79
2023/04/15 04:36:08;;;;;;;4.67;4.30;;;;;;;11.07;54.66;96839.44;8317558;28;20371;-79
2023/04/15 04:40:12;;;;;;;5.03;4.53;;;;;;;11.04;55.38;96856.94;8318303;28;20237;-79
2023/04/15 04:44:17;;;;;;;4.53;4.13;;;;;;;11.22;54.64;96852.34;8318125;28;20230;-79
2023/04/15 04:48:20;;;;;;;4.00;3.70;;;;;;;11.20;54.86;96864.56;8318374;28;20234;-79
2023/04/15 04:52:22;;;;;;;5.13;4.73;;;;;;;11.25;54.68;96858.16;8318018;28;20413;-79
2023/04/15 04:56:26;;;;;;;4.90;4.40;;;;;;;11.19;54.89;96863.72;8317781;28;20245;-79
2023/04/15 05:00:30;;;;;;;5.23;4.73;;;;;;;11.26;54.75;96859.81;8317150;28;20237;-79
2023/04/15 05:04:33;;;;;;;5.23;4.73;;;;;;;11.21;54.78;96859.28;8317427;28;20254;-80
2023/04/15 05:08:36;;;;;;;5.07;4.67;;;;;;;11.26;54.31;96862.41;8320175;28;20255;-79
2023/04/15 05:12:42;;;;;;;5.60;5.13;;;;;;;11.30;54.58;96856.09;8317571;28;20517;-80
2023/04/15 05:16:46;;;;;;;5.80;5.30;;;;;;;11.22;54.93;96857.53;8317131;28;20246;-79
2023/04/15 05:20:49;;;;;;;5.80;5.27;;;;;;;11.19;55.06;96860.31;8317035;28;20289;-79
2023/04/15 05:24:52;;;;;;;5.70;5.20;;;;;;;10.95;55.13;96814.34;8316833;28;20244;-80
2023/04/15 05:28:55;;;;;;;5.83;5.33;;;;;;;11.39;54.61;96853.84;8316915;28;20280;-80
2023/04/15 05:32:59;;;;;;;5.90;5.47;;;;;;;11.42;54.86;96861.41;8316785;28;20242;-79
2023/04/15 05:37:02;;;;;;;6.63;6.03;;;;;;;11.33;54.71;96847.31;8316516;28;20333;-79
2023/04/15 05:41:05;;;;;;;6.00;5.53;;;;;;;11.49;54.83;96860.91;8316625;28;20509;-79
2023/04/15 05:45:08;;;;;;;6.77;5.93;;;;;;;11.07;55.01;96802.34;8316437;28;20234;-79
2023/04/15 05:49:13;;;;;;;6.83;6.23;;;;;;;11.63;54.36;96860.00;8316018;28;20269;-79
2023/04/15 05:53:16;;;;;;;6.80;6.20;;;;;;;11.71;54.33;96869.88;8315335;28;20229;-79
2023/04/15 05:57:21;;;;;;;7.27;6.57;;;;;;;11.69;54.24;96874.31;8315984;28;20405;-80
2023/04/15 06:01:24;;;;;;;6.73;6.13;;;;;;;11.65;53.56;96868.53;8315327;28;20239;-79
2023/04/15 06:05:29;;;;;;;7.67;6.13;;;;;;;11.24;53.94;96827.97;8315135;28;20548;-79
2023/04/15 06:09:32;;;;;;;6.60;6.10;;;;;;;11.74;54.03;96872.25;8315679;28;20238;-80
2023/04/15 06:13:35;;;;;;;6.37;5.87;;;;;;;11.84;53.75;96881.09;8315479;28;20238;-79
2023/04/15 06:17:38;;;;;;;6.30;5.80;;;;;;;11.93;53.52;96882.25;8315348;28;20237;-79
2023/04/15 06:21:42;;;;;;;6.80;6.17;;;;;;;11.85;54.30;96885.34;8297783;28;20226;-79
2023/04/15 06:25:45;;;;;;;6.77;6.20;;;;;;;11.92;53.52;96881.44;8315033;28;20230;-79
2023/04/15 06:29:48;;;;;;;6.80;5.97;;;;;;;12.02;53.55;96878.22;8315150;28;20233;-79
2023/04/15 06:33:51;;;;;;;8.30;7.30;;;;;;;12.08;53.23;96885.59;8315172;28;20250;-79
2023/04/15 06:37:56;;;;;;;7.40;6.80;;;;;;;12.16;53.11;96874.69;8315195;28;20223;-79
2023/04/15 06:42:00;;;;;;;7.47;6.87;;;;;;;12.15;53.60;96888.59;8315296;28;20226;-79
2023/04/15 06:46:03;;;;;;;6.37;5.77;;;;;;;12.30;53.15;96890.16;8314766;28;20237;-79
2023/04/15 06:50:08;;;;;;;6.70;5.90;;;;;;;12.01;53.03;96890.34;8314510;28;20677;-79
2023/04/15 06:54:12;;;;;;;6.20;5.57;;;;;;;12.15;53.00;96893.78;8314747;28;20320;-79
2023/04/15 06:58:15;;;;;;;6.10;5.60;;;;;;;12.14;53.29;96892.97;8314768;28;20269;-79
2023/04/15 07:02:18;;;;;;;6.33;5.83;;;;;;;12.25;52.81;96897.44;8314166;28;20241;-79
2023/04/15 07:06:21;;;;;;;7.40;6.70;;;;;;;12.24;52.70;96894.00;8314245;28;20245;-80
2023/04/15 07:10:25;;;;;;;6.73;5.80;;;;;;;12.50;52.42;96888.78;8314367;28;20246;-79
2023/04/15 07:14:28;;;;;;;6.80;5.80;;;;;;;12.43;52.70;96885.78;8314524;28;20230;-79
2023/04/15 07:18:31;;;;;;;5.00;4.60;;;;;;;12.30;52.42;96884.97;8314572;28;20234;-78
2023/04/15 07:22:33;;;;;;;5.10;4.60;;;;;;;12.20;52.21;96857.97;8314183;28;20537;-79
2023/04/15 07:26:38;;;;;;;5.73;5.20;;;;;;;12.26;52.97;96897.34;8314079;28;20238;-79
2023/04/15 07:30:41;;;;;;;5.47;4.83;;;;;;;12.58;52.36;96899.47;8314176;28;20230;-79
2023/04/15 07:34:44;;;;;;;4.87;4.50;;;;;;;12.78;52.24;96900.69;8313866;28;20323;-79
2023/04/15 07:38:47;;;;;;;5.00;4.53;;;;;;;12.90;51.86;96889.41;8314017;28;20230;-79
2023/04/15 07:42:52;;;;;;;4.93;4.53;;;;;;;12.98;51.83;96904.44;8313823;28;20534;-79
2023/04/15 07:46:55;;;;;;;5.43;4.60;;;;;;;13.07;52.04;96906.41;8313493;28;20231;-79
2023/04/15 07:50:57;;;;;;;4.90;4.50;;;;;;;12.12;53.91;96908.63;8313611;28;20230;-79
2023/04/15 07:55:00;;;;;;;4.27;3.93;;;;;;;12.57;53.94;96903.00;8313733;28;20321;-79
2023/04/15 07:59:05;;;;;;;4.87;4.47;;;;;;;12.52;54.15;96910.28;8313517;28;20250;-79
2023/04/15 08:03:08;;;;;;;4.40;4.00;;;;;;;12.38;54.24;96915.59;8313419;28;20235;-79
2023/04/15 08:07:13;;;;;;;4.93;4.53;;;;;;;12.48;54.49;96917.44;8313380;28;20245;-79
2023/04/15 08:11:16;;;;;;;3.30;3.00;;;;;;;11.78;55.46;96910.00;8314075;28;20537;-79
2023/04/15 08:15:21;;;;;;;2.60;2.40;;;;;;;11.86;55.03;96918.13;8313475;28;20226;-79
2023/04/15 08:19:24;;;;;;;1.97;1.87;;;;;;;11.80;54.74;96913.34;8318848;28;20234;-77
2023/04/15 08:23:27;;;;;;;1.73;1.63;;;;;;;10.65;56.87;96855.94;8318953;28;20237;-79
2023/04/15 08:27:29;;;;;;;1.80;1.70;;;;;;;11.63;56.96;96885.94;8318712;28;20277;-79
2023/04/15 08:31:34;;;;;;;2.97;1.80;;;;;;;11.72;57.25;96928.56;8319115;28;20226;-79
2023/04/15 08:35:37;;;;;;;2.23;1.63;;;;;;;12.09;56.80;96928.78;8317989;28;20237;-79
2023/04/15 08:39:40;;;;;;;1.33;1.30;;;;;;;11.67;57.27;96925.44;8318154;28;20557;-79
2023/04/15 08:43:47;;;;;;;1.10;1.00;;;;;;;11.89;56.66;96930.91;8317847;28;20249;-79
2023/04/15 08:47:55;;;;;;;1.10;1.00;;;;;;;11.04;58.16;96927.75;8318360;28;20269;-79
2023/04/15 08:51:59;;;;;;;1.53;1.13;;;;;;;11.70;57.71;96933.03;8317668;28;20533;-79
2023/04/15 08:56:05;;;;;;;0.87;0.87;;;;;;;11.94;56.86;96922.84;8318038;28;20421;-79
2023/04/15 09:00:09;;;;;;;0.90;0.90;;;;;;;11.53;58.21;96940.13;8317853;28;20226;-80
2023/04/15 09:04:14;;;;;;;1.00;0.90;;;;;;;11.74;57.74;96932.72;8317274;28;20429;-79
2023/04/15 09:08:17;;;;;;;0.97;0.93;;;;;;;11.55;58.05;96935.69;8316964;28;20241;-80
2023/04/15 09:12:20;;;;;;;1.43;1.33;;;;;;;11.49;57.35;96940.44;8317303;28;20309;-79
2023/04/15 09:16:24;;;;;;;1.20;1.10;;;;;;;11.63;56.82;96940.41;8317227;28;20246;-79
2023/04/15 09:20:29;;;;;;;0.90;0.90;;;;;;;11.35;58.02;96942.16;8316623;28;20272;-79
2023/04/15 09:24:38;;;;;;;1.00;1.00;;;;;;;11.35;57.55;96933.56;8316937;28;20234;-79
2023/04/15 09:28:43;;;;;;;1.10;1.00;;;;;;;11.43;58.45;96949.44;8316031;28;20552;-79
2023/04/15 09:32:50;;;;;;;1.63;1.20;;;;;;;11.67;58.07;96956.56;8316580;28;20234;-79
2023/04/15 09:36:56;;;;;;;0.90;0.90;;;;;;;11.15;57.55;96937.41;8316579;28;20245;-79
2023/04/15 09:40:59;;;;;;;1.00;0.97;;;;;;;11.16;58.19;96957.22;8316803;28;20230;-79
2023/04/15 09:45:12;;;;;;;1.03;1.00;;;;;;;9.69;58.12;96695.34;8316244;28;20231;-80
2023/04/15 09:49:16;;;;;;;0.93;0.93;;;;;;;11.14;58.47;96965.09;8316024;28;20238;-79
2023/04/15 09:53:22;;;;;;;1.13;1.13;;;;;;;10.67;59.52;96947.31;8315648;28;20432;-80
2023/04/15 09:57:25;;;;;;;1.67;1.30;;;;;;;11.33;58.12;96963.94;8315699;28;20231;-79
2023/04/15 10:01:28;;;;;;;1.57;1.30;;;;;;;11.28;58.73;96976.34;8315300;28;20243;-79
2023/04/15 10:05:31;;;;;;;1.50;1.40;;;;;;;10.81;58.90;96946.44;8315639;28;20257;-79
2023/04/15 10:09:38;;;;;;;1.83;1.63;;;;;;;11.10;59.54;96978.31;8315522;28;20312;-79
2023/04/15 10:13:41;;;;;;;3.67;1.70;;;;;;;10.79;60.21;96919.81;8314953;28;20361;-79
2023/04/15 10:17:45;;;;;;;1.87;1.50;;;;;;;11.47;59.93;96992.41;8315209;28;20227;-82
2023/04/15 10:21:48;;;;;;;2.17;1.63;;;;;;;11.51;59.76;97003.41;8315274;28;20357;-83
2023/04/15 10:25:53;;;;;;;2.17;2.00;;;;;;;11.63;59.62;96992.28;8315127;28;20329;-78
2023/04/15 10:29:56;;;;;;;2.50;1.83;;;;;;;11.49;59.86;96998.31;8314702;28;20226;-75
2023/04/15 10:34:02;;;;;;;1.97;1.80;;;;;;;11.31;60.57;96987.34;8314543;28;20234;-77
2023/04/15 10:38:31;;;;;;;2.37;2.17;;;;;;;10.93;61.33;96992.34;8317308;28;20237;-78
2023/04/15 10:42:35;;;;;;;2.00;1.80;;;;;;;11.77;60.12;96988.78;8314085;28;20238;-78
2023/04/15 10:46:39;;;;;;;2.43;2.23;;;;;;;12.25;59.96;96991.69;8313842;28;20316;-78
2023/04/15 10:50:56;;;;;;;2.10;1.90;;;;;;;11.91;58.82;96986.13;8313944;28;20222;-78
2023/04/15 10:55:03;;;;;;;2.80;2.60;;;;;;;12.72;59.07;96981.66;8314337;28;20222;-78
2023/04/15 10:59:07;;;;;;;1.90;1.80;;;;;;;12.58;59.44;96982.56;8314441;28;20292;-78
2023/04/15 11:03:10;;;;;;;2.13;1.70;;;;;;;13.07;59.09;96991.34;8313860;28;20239;-78
2023/04/15 11:07:13;;;;;;;2.67;2.47;;;;;;;12.20;59.08;96975.59;8314058;28;20296;-78
2023/04/15 11:11:16;;;;;;;1.97;1.87;;;;;;;12.06;59.65;96997.28;8313981;28;20234;-78
2023/04/15 11:15:29;;;;;;;2.27;2.13;;;;;;;12.00;58.53;96984.72;8314097;28;20529;-78
2023/04/15 11:19:38;;;;;;;2.80;2.60;;;;;;;12.25;58.95;96996.06;8313295;28;20231;-79
2023/04/15 11:23:45;;;;;;;2.70;2.50;;;;;;;12.32;57.86;96997.34;8313524;28;20245;-78
2023/04/15 11:27:48;;;;;;;2.00;1.80;;;;;;;12.77;57.67;96999.50;8313732;28;20342;-79
2023/04/15 11:31:53;;;;;;;2.17;1.97;;;;;;;12.65;57.44;97004.59;8313647;28;20249;-78
2023/04/15 11:35:55;;;;;;;2.50;1.80;;;;;;;13.01;56.33;97009.97;8313777;28;20230;-77
2023/04/15 11:39:58;;;;;;;2.00;1.90;;;;;;;11.49;58.86;97013.03;8313022;28;20233;-77
2023/04/15 11:44:01;;;;;;;2.17;1.97;;;;;;;12.11;57.02;97012.56;8313383;28;20545;-79
2023/04/15 11:48:10;;;;;;;2.07;1.80;;;;;;;11.94;56.54;96974.75;8313228;28;20234;-79
2023/04/15 11:52:12;;;;;;;3.57;1.80;;;;;;;11.56;58.04;97019.50;8315326;28;20230;-78
2023/04/15 11:56:20;;;;;;;4.40;3.30;;;;;;;12.21;57.36;97023.16;8319593;28;20233;-79
2023/04/15 12:00:23;;;;;;;1.70;1.57;;;;;;;12.29;57.39;97015.69;8319754;28;20226;-80
2023/04/15 12:04:28;;;;;;;1.60;1.50;;;;;;;12.48;56.62;97020.50;8319494;28;20241;-80
2023/04/15 12:08:49;;;;;;;1.53;1.23;;;;;;;12.75;54.87;97003.97;8318704;28;20240;-74
2023/04/15 12:12:53;;;;;;;1.20;1.10;;;;;;;12.66;55.59;97026.19;8319418;28;20249;-78
2023/04/15 12:16:58;;;;;;;1.10;1.10;;;;;;;12.65;56.32;97030.56;8319305;28;20241;-77
2023/04/15 12:21:09;;;;;;;1.30;1.30;;;;;;;12.46;56.50;97038.75;8319320;28;20301;-77
2023/04/15 12:25:12;;;;;;;1.10;1.10;;;;;;;12.40;56.34;97035.75;8318938;28;20226;-78
2023/04/15 12:29:16;;;;;;;1.07;1.00;;;;;;;11.91;56.47;97051.00;8318977;28;20227;-78
2023/04/15 12:33:21;;;;;;;0.97;0.97;;;;;;;12.24;56.04;97049.75;8301670;28;20234;-77
2023/04/15 12:37:25;;;;;;;1.20;1.10;;;;;;;12.20;56.27;97058.66;8318734;28;20254;-77
2023/04/15 12:41:28;;;;;;;1.20;1.20;;;;;;;12.06;56.84;97058.72;8317906;28;20231;-78
2023/04/15 12:45:31;;;;;;;1.07;1.07;;;;;;;12.03;56.51;97066.69;8317876;28;20238;-76
2023/04/15 12:49:34;;;;;;;1.03;1.03;;;;;;;11.89;57.64;97058.03;8318540;28;20230;-79
2023/04/15 12:53:38;;;;;;;1.30;1.20;;;;;;;11.71;56.64;97015.13;8326930;28;20242;-78
2023/04/15 12:57:41;;;;;;;1.13;1.10;;;;;;;12.05;57.16;97047.53;8333175;28;20226;-78
2023/04/15 13:01:44;;;;;;;0.80;0.80;;;;;;;12.58;55.93;97073.47;8333686;28;20242;-78
2023/04/15 13:06:05;;;;;;;0.87;0.87;;;;;;;12.55;55.05;97080.66;8333158;28;20258;-79
2023/04/15 13:10:10;;;;;;;1.00;1.00;;;;;;;12.77;54.96;97077.44;8333034;28;20231;-78
2023/04/15 13:14:13;;;;;;;1.00;0.90;;;;;;;12.75;54.49;97081.91;8332964;28;20241;-78
2023/04/15 13:18:16;;;;;;;0.90;0.90;;;;;;;12.64;55.59;97087.81;8325105;28;20234;-78
2023/04/15 13:22:19;;;;;;;0.60;0.60;;;;;;;12.80;54.50;97085.03;8330469;28;20249;-79
2023/04/15 13:26:23;;;;;;;0.83;0.83;;;;;;;12.75;55.40;97087.09;8319744;28;20561;-78
2023/04/15 13:30:26;;;;;;;1.10;1.10;;;;;;;12.61;55.48;97094.06;8317831;28;20533;-78
2023/04/15 13:34:29;;;;;;;2.53;1.30;;;;;;;12.45;55.67;97099.44;8317127;28;20229;-78
2023/04/15 13:38:32;;;;;;;1.20;1.20;;;;;;;12.62;56.65;97111.31;8316558;28;20241;-78
2023/04/15 13:42:36;;;;;;;1.53;1.00;;;;;;;12.16;56.19;97064.97;8316791;28;20234;-79
2023/04/15 13:46:40;;;;;;;1.10;1.10;;;;;;;12.17;56.88;97122.94;8317275;28;20276;-78
2023/04/15 13:50:44;;;;;;;1.43;1.33;;;;;;;12.54;55.96;97123.94;8316708;28;20241;-79
2023/04/15 13:54:50;;;;;;;0.90;0.90;;;;;;;12.41;56.55;97123.09;8316938;28;20222;-79
2023/04/15 13:59:17;;;;;;;0.90;0.80;;;;;;;12.64;56.91;97130.22;8316493;28;20257;-82
2023/04/15 14:03:20;;;;;;;0.70;0.70;;;;;;;12.61;57.43;97127.00;8313723;28;20326;-78
2023/04/15 14:07:23;;;;;;;0.80;0.80;;;;;;;12.82;56.83;97135.13;8315512;28;20238;-80
2023/04/15 14:11:26;;;;;;;0.97;0.70;;;;;;;12.69;57.09;97132.50;8314983;28;20260;-79
2023/04/15 14:15:30;;;;;;;1.90;0.70;;;;;;;12.79;56.40;97135.31;8314081;28;20482;-78
2023/04/15 14:19:34;;;;;;;0.70;0.70;;;;;;;12.64;56.52;97155.34;8314396;28;20235;-78
2023/04/15 14:23:37;;;;;;;0.83;0.80;;;;;;;12.75;55.96;97152.88;8314894;28;20526;-77
2023/04/15 14:27:40;;;;;;;0.80;0.80;;;;;;;12.56;56.40;97155.03;8314773;28;20242;-78
2023/04/15 14:31:44;;;;;;;0.87;0.73;;;;;;;12.71;55.46;97160.03;8314633;28;20234;-80
2023/04/15 14:36:10;;;;;;;0.60;0.60;;;;;;;12.47;55.61;97164.22;8314638;28;20276;-78
2023/04/15 14:40:12;;;;;;;0.70;0.70;;;;;;;12.52;56.05;97180.34;8314719;28;20222;-79
2023/04/15 14:44:15;;;;;;;0.80;0.80;;;;;;;12.43;56.31;97180.94;8314566;28;20227;-79
2023/04/15 14:48:20;;;;;;;0.60;0.60;;;;;;;12.39;56.46;97188.09;8314276;28;20238;-78
2023/04/15 14:52:23;;;;;;;0.80;0.80;;;;;;;12.42;56.54;97180.13;8315428;28;20233;-79
2023/04/15 14:56:26;;;;;;;1.17;0.80;;;;;;;12.55;56.80;97195.75;8316329;28;20206;-78
2023/04/15 15:00:29;;;;;;;1.03;1.03;;;;;;;12.61;56.64;97205.75;8316755;28;20205;-78
2023/04/15 15:04:34;;;;;;;1.00;1.00;;;;;;;12.10;58.88;97185.59;8316245;28;20199;-78
2023/04/15 15:08:38;;;;;;;1.00;1.00;;;;;;;12.35;58.26;97209.19;8315743;28;20230;-79
2023/04/15 15:12:40;;;;;;;1.10;1.00;;;;;;;12.46;58.31;97214.53;8313525;28;20549;-79
2023/04/15 15:16:43;;;;;;;0.90;0.90;;;;;;;12.39;58.73;97213.25;8313770;28;20233;-79
2023/04/15 15:20:48;;;;;;;0.80;0.80;;;;;;;12.22;57.94;97172.78;8313601;28;20318;-79
2023/04/15 15:24:51;;;;;;;1.00;1.00;;;;;;;12.49;58.17;97217.75;8313619;28;20222;-78
2023/04/15 15:28:54;;;;;;;1.10;1.00;;;;;;;12.39;58.44;97228.81;8312340;28;20230;-77
2023/04/15 15:32:57;;;;;;;4.97;4.57;;;;;;;12.35;58.63;97233.38;8313178;28;20226;-77
2023/04/15 15:37:01;;;;;;;7.23;6.57;;;;;;;12.25;59.72;97229.69;8313391;28;20453;-78
2023/04/15 15:41:04;;;;;;;1.40;1.40;;;;;;;12.27;59.53;97235.63;8313024;28;20224;-78
2023/04/15 15:45:08;;;;;;;2.13;1.90;;;;;;;12.26;60.34;97242.59;8313576;28;20222;-78
2023/04/15 15:49:11;;;;;;;2.67;2.53;;;;;;;11.99;60.62;97194.97;8313026;28;20230;-78
2023/04/15 15:53:19;;;;;;;2.10;2.00;;;;;;;12.41;59.99;97258.13;8312993;28;20526;-78
2023/04/15 15:57:22;;;;;;;2.70;2.50;;;;;;;12.16;61.34;97259.66;8313204;28;20235;-78
2023/04/15 16:01:25;;;;;;;3.30;2.90;;;;;;;12.59;59.90;97258.72;8312655;28;20255;-77
2023/04/15 16:05:28;;;;;;;2.10;1.90;;;;;;;12.56;60.38;97266.72;8312767;28;20237;-76
2023/04/15 16:09:32;;;;;;;2.00;1.90;;;;;;;12.29;60.53;97229.41;8313191;28;20514;-78
2023/04/15 16:13:35;;;;;;;1.80;1.70;;;;;;;12.47;60.68;97268.97;8313343;28;20227;-78
2023/04/15 16:17:38;;;;;;;2.40;2.30;;;;;;;12.64;60.14;97267.03;8315127;28;20246;-78
2023/04/15 16:21:40;;;;;;;1.80;1.70;;;;;;;12.53;60.95;97262.56;8312507;28;20232;-77
2023/04/15 16:25:44;;;;;;;4.40;4.00;;;;;;;12.67;60.65;97280.66;8312527;28;20237;-78
2023/04/15 16:29:47;;;;;;;5.70;5.27;;;;;;;12.43;60.28;97245.88;8312496;28;20242;-78
2023/04/15 16:33:50;;;;;;;3.23;3.03;;;;;;;12.62;60.66;97289.69;8312172;28;20222;-77
2023/04/15 16:37:53;;;;;;;3.27;3.07;;;;;;;12.14;61.01;97201.81;8313564;28;20513;-77
2023/04/15 16:41:57;;;;;;;3.97;3.77;;;;;;;12.51;60.98;97280.00;8317981;28;20238;-78
2023/04/15 16:46:00;;;;;;;3.43;3.23;;;;;;;12.57;60.60;97294.34;8318174;28;20293;-77
2023/04/15 16:50:03;;;;;;;2.50;2.30;;;;;;;12.60;60.91;97294.16;8318106;28;20230;-77
2023/04/15 16:54:06;;;;;;;1.93;1.83;;;;;;;12.59;60.87;97298.50;8318298;28;20222;-78
2023/04/15 16:58:10;;;;;;;2.20;2.10;;;;;;;12.23;62.49;97302.47;8318132;28;20399;-77
2023/04/15 17:02:13;;;;;;;2.17;2.07;;;;;;;11.89;62.84;97283.75;8317528;28;20235;-77
2023/04/15 17:06:16;;;;;;;2.17;2.07;;;;;;;12.34;61.71;97299.22;8317412;28;20232;-76
2023/04/15 17:10:19;;;;;;;2.17;2.07;;;;;;;12.38;61.84;97315.44;8317603;28;20250;-77
2023/04/15 17:14:23;;;;;;;2.47;2.37;;;;;;;12.04;61.70;97300.16;8317560;28;20241;-74
2023/04/15 17:18:26;;;;;;;2.50;2.30;;;;;;;12.33;61.93;97339.91;8317288;28;20227;-77
2023/04/15 17:22:29;;;;;;;2.50;2.40;;;;;;;12.51;61.46;97350.13;8316967;28;20223;-78
2023/04/15 17:26:32;;;;;;;3.63;3.43;;;;;;;12.39;61.84;97356.88;8317032;28;20253;-77
2023/04/15 17:30:36;;;;;;;2.23;2.13;;;;;;;12.41;61.66;97355.00;8316933;28;20238;-78
2023/04/15 17:34:39;;;;;;;2.37;2.27;;;;;;;12.26;61.91;97353.34;8317346;28;20242;-78
2023/04/15 17:38:52;;;;;;;1.80;1.70;;;;;;;12.33;61.25;97365.03;8317654;28;20438;-76
2023/04/15 17:42:55;;;;;;;1.50;1.40;;;;;;;12.33;61.49;97370.25;8316607;28;20222;-77
2023/04/15 17:46:59;;;;;;;1.43;1.33;;;;;;;12.37;61.42;97382.09;8316060;28;20292;-78
2023/04/15 17:51:02;;;;;;;1.50;1.40;;;;;;;12.30;61.01;97392.03;8315121;28;20231;-75
2023/04/15 17:55:06;;;;;;;1.57;1.47;;;;;;;12.20;61.99;97390.91;8316050;28;20355;-76
2023/04/15 17:59:09;;;;;;;2.40;2.20;;;;;;;12.33;61.63;97396.19;8315526;28;20337;-77
2023/04/15 18:03:13;;;;;;;2.53;2.33;;;;;;;12.41;61.70;97403.53;8315594;28;20230;-76
2023/04/15 18:07:16;;;;;;;2.63;2.33;;;;;;;12.26;62.10;97398.34;8315515;28;20298;-74
2023/04/15 18:11:20;;;;;;;2.73;2.53;;;;;;;12.35;61.91;97404.72;8315205;28;20242;-75
2023/04/15 18:15:22;;;;;;;2.93;2.30;;;;;;;12.21;61.69;97400.38;8314573;28;20230;-76
2023/04/15 18:19:26;;;;;;;1.73;1.63;;;;;;;12.31;61.82;97419.66;8330509;28;20230;-72
2023/04/15 18:23:29;;;;;;;2.00;1.90;;;;;;;12.24;61.86;97410.59;8316262;28;20234;-75
2023/04/15 18:27:33;;;;;;;4.33;1.90;;;;;;;13.83;82.91;97424.88;8316224;28;20234;-75
2023/04/15 18:31:36;;;;;;;4.00;1.40;;;;;;;15.40;72.73;97439.31;8315423;28;20226;-74
2023/04/15 18:35:41;;;;;;;1.47;1.40;;;;;;;13.63;61.42;97447.03;8314943;28;20233;-75
2023/04/15 18:39:44;;;;;;;1.17;1.13;;;;;;;13.05;60.88;97446.31;8314642;28;20240;-75
2023/04/15 18:43:47;;;;;;;1.00;1.00;;;;;;;12.94;61.18;97453.94;8314535;28;20244;-75
2023/04/15 18:47:51;;;;;;;1.63;1.53;;;;;;;12.78;61.11;97459.28;8313964;28;20239;-75
2023/04/15 18:51:55;;;;;;;4.23;3.27;;;;;;;12.70;60.88;97466.72;8314432;28;20227;-74
2023/04/15 18:56:00;;;;;;;3.97;2.30;;;;;;;12.58;61.45;97462.25;8313832;28;20444;-75
2023/04/15 19:00:04;;;;;;;1.57;1.47;;;;;;;12.49;61.31;97468.84;8313918;28;20545;-76
2023/04/15 19:04:07;;;;;;;0.87;0.87;;;;;;;12.41;61.66;97473.63;8314042;28;20235;-74
2023/04/15 19:08:12;;;;;;;0.80;0.80;;;;;;;12.31;61.86;97475.94;8314029;28;20297;-75